Time;durP1;ratioP1;P1;durP2;ratioP2;P2;SDS_P1;SDS_P2;PMS_P1;PMS_P2;Temp;Humidity;BMP_temperature;BMP_pressure;BME280_temperature;BME280_humidity;BME280_pressure;Samples;Min_cycle;Max_cycle;Signal;HPM_P1;HPM_P2
2022/08/04 00:01:11;;;;;;;;;;;;;;;;;;5116178;28;19939;-85
2022/08/04 00:03:40;;;;;;;;;;;;;;;;;;5102742;28;19920;-89
2022/08/04 00:06:09;;;;;;;;;;;;;;;;;;5111862;28;19956;-89
2022/08/04 00:08:44;;;;;;;;;;;;;;;;;;5096103;28;20056;-88
2022/08/04 00:11:10;;;;;;;;;;;;;;;;;;5111379;28;19916;-88
2022/08/04 00:13:38;;;;;;;;;;;;;;;;;;5095844;28;19924;-89
2022/08/04 00:16:04;;;;;;;;;;;;;;;;;;5094329;28;19922;-88
2022/08/04 00:18:39;;;;;;;;;;;;;;;;;;5095785;28;20083;-88
2022/08/04 00:21:05;;;;;;;;;;;;;;;;;;5111657;28;19916;-89
2022/08/04 00:23:32;;;;;;;;;;;;;;;;;;5106586;28;20243;-89
2022/08/04 00:25:57;;;;;;;;;;;;;;;;;;5111663;28;20014;-86
2022/08/04 00:28:22;;;;;;;;;;;;;;;;;;5096153;28;20317;-88
2022/08/04 00:30:48;;;;;;;;;;;;;;;;;;5095510;28;19967;-88
2022/08/04 00:33:17;;;;;;;;;;;;;;;;;;5095915;28;20006;-88
2022/08/04 00:35:43;;;;;;;;;;;;;;;;;;5112413;28;20359;-87
2022/08/04 00:38:08;;;;;;;;;;;;;;;;;;5113062;28;19916;-87
2022/08/04 00:40:52;;;;;;;;;;;;;;;;;;5113582;28;19923;-88
2022/08/04 00:43:17;;;;;;;;;;;;;;;;;;5100443;28;19973;-87
2022/08/04 00:45:53;;;;;;;;;;;;;;;;;;5101081;28;19920;-86
2022/08/04 00:48:24;;;;;;;;;;;;;;;;;;5111777;28;19919;-88
2022/08/04 00:50:51;;;;;;;;;;;;;;;;;;5110853;28;19968;-88
2022/08/04 00:53:29;;;;;;;;;;;;;;;;;;5110886;28;19917;-89
2022/08/04 00:56:13;;;;;;;;;;;;;;;;;;5095134;28;19923;-88
2022/08/04 00:58:42;;;;;;;;;;;;;;;;;;5095136;28;19916;-88
2022/08/04 01:01:12;;;;;;;;;;;;;;;;;;5093701;28;20326;-88
2022/08/04 01:03:41;;;;;;;;;;;;;;;;;;5112198;28;20018;-88
2022/08/04 01:06:25;;;;;;;;;;;;;;;;;;5104292;28;19972;-88
2022/08/04 01:09:04;;;;;;;;;;;;;;;;;;5094872;28;19923;-89
2022/08/04 01:11:46;;;;;;;;;;;;;;;;;;5095371;28;19916;-88
2022/08/04 01:14:16;;;;;;;;;;;;;;;;;;5110184;28;19923;-88
2022/08/04 01:16:51;;;;;;;;;;;;;;;;;;5110330;28;19917;-88
2022/08/04 01:19:34;;;;;;;;;;;;;;;;;;5093209;28;19966;-88
2022/08/04 01:22:14;;;;;;;;;;;;;;;;;;5093146;28;19916;-88
2022/08/04 01:24:42;;;;;;;;;;;;;;;;;;5096865;28;19916;-87
2022/08/04 01:27:25;;;;;;;;;;;;;;;;;;5101964;28;19920;-88
2022/08/04 01:29:51;;;;;;;;;;;;;;;;;;5110737;28;19924;-89
2022/08/04 01:32:20;;;;;;;;;;;;;;;;;;5111042;28;19960;-89
2022/08/04 01:34:52;;;;;;;;;;;;;;;;;;5094568;28;20262;-89
2022/08/04 01:37:20;;;;;;;;;;;;;;;;;;5110520;28;20335;-88
2022/08/04 01:39:50;;;;;;;;;;;;;;;;;;5094655;28;19927;-89
2022/08/04 01:42:16;;;;;;;;;;;;;;;;;;5096116;28;19951;-87
2022/08/04 01:44:41;;;;;;;;;;;;;;;;;;5111905;28;19920;-88
2022/08/04 01:47:07;;;;;;;;;;;;;;;;;;5124152;28;19927;-88
2022/08/04 01:49:33;;;;;;;;;;;;;;;;;;5132565;28;19955;-87
2022/08/04 01:51:58;;;;;;;;;;;;;;;;;;5117493;28;19905;-87
2022/08/04 01:54:24;;;;;;;;;;;;;;;;;;5128138;28;19928;-87
2022/08/04 01:56:49;;;;;;;;;;;;;;;;;;5110352;28;19916;-88
2022/08/04 01:59:18;;;;;;;;;;;;;;;;;;5094656;28;20007;-89
2022/08/04 02:01:43;;;;;;;;;;;;;;;;;;5095217;28;20253;-88
2022/08/04 02:04:15;;;;;;;;;;;;;;;;;;5094682;28;19916;-88
2022/08/04 02:06:59;;;;;;;;;;;;;;;;;;5097881;28;19904;-88
2022/08/04 02:09:28;;;;;;;;;;;;;;;;;;5097034;28;19955;-88
2022/08/04 02:11:59;;;;;;;;;;;;;;;;;;5110194;28;19917;-89
2022/08/04 02:14:39;;;;;;;;;;;;;;;;;;5109921;28;19916;-90
2022/08/04 02:17:11;;;;;;;;;;;;;;;;;;5108540;28;19916;-89
2022/08/04 02:19:49;;;;;;;;;;;;;;;;;;5094020;28;19916;-88
2022/08/04 02:22:17;;;;;;;;;;;;;;;;;;5094535;28;19916;-89
2022/08/04 02:24:45;;;;;;;;;;;;;;;;;;5096397;28;19920;-88
2022/08/04 02:27:10;;;;;;;;;;;;;;;;;;5098218;28;19916;-87
2022/08/04 02:29:38;;;;;;;;;;;;;;;;;;5120351;28;20381;-89
2022/08/04 02:32:05;;;;;;;;;;;;;;;;;;5097673;28;19916;-89
2022/08/04 02:34:33;;;;;;;;;;;;;;;;;;5097796;28;20068;-89
2022/08/04 02:36:58;;;;;;;;;;;;;;;;;;5097711;28;19964;-90
2022/08/04 02:39:24;;;;;;;;;;;;;;;;;;5113404;28;20370;-89
2022/08/04 02:41:49;;;;;;;;;;;;;;;;;;5113419;28;19924;-89
2022/08/04 02:44:18;;;;;;;;;;;;;;;;;;5097383;28;19927;-88
2022/08/04 02:46:44;;;;;;;;;;;;;;;;;;5097241;28;19923;-88
2022/08/04 02:49:09;;;;;;;;;;;;;;;;;;5121987;28;19908;-88
2022/08/04 02:51:35;;;;;;;;;;;;;;;;;;5101072;28;19920;-88
2022/08/04 02:54:01;;;;;;;;;;;;;;;;;;5097202;28;19916;-88
2022/08/04 02:56:27;;;;;;;;;;;;;;;;;;5097161;28;19916;-87
2022/08/04 02:59:03;;;;;;;;;;;;;;;;;;5097323;28;19952;-88
2022/08/04 03:01:28;;;;;;;;;;;;;;;;;;5112531;28;19929;-88
2022/08/04 03:03:59;;;;;;;;;;;;;;;;;;5097206;28;19916;-88
2022/08/04 03:06:43;;;;;;;;;;;;;;;;;;5097401;28;19916;-89
2022/08/04 03:09:15;;;;;;;;;;;;;;;;;;5098224;28;19923;-88
2022/08/04 03:11:58;;;;;;;;;;;;;;;;;;5108527;28;19920;-88
2022/08/04 03:14:39;;;;;;;;;;;;;;;;;;5097186;28;19917;-89
2022/08/04 03:17:22;;;;;;;;;;;;;;;;;;5112592;28;19966;-88
2022/08/04 03:20:06;;;;;;;;;;;;;;;;;;5096571;28;19917;-89
2022/08/04 03:22:40;;;;;;;;;;;;;;;;;;5096789;28;20257;-87
2022/08/04 03:25:13;;;;;;;;;;;;;;;;;;5097050;28;20325;-89
2022/08/04 03:27:57;;;;;;;;;;;;;;;;;;5112503;28;19916;-89
2022/08/04 03:30:26;;;;;;;;;;;;;;;;;;5098966;28;19904;-88
2022/08/04 03:32:54;;;;;;;;;;;;;;;;;;5119319;28;19920;-88
2022/08/04 03:35:38;;;;;;;;;;;;;;;;;;5096227;28;19916;-88
2022/08/04 03:38:03;;;;;;;;;;;;;;;;;;5096356;28;20018;-88
2022/08/04 03:40:47;;;;;;;;;;;;;;;;;;5096406;28;19938;-87
2022/08/04 03:43:24;;;;;;;;;;;;;;;;;;5096282;28;20250;-88
2022/08/04 03:46:18;;;;;;;;;;;;;;;;;;5096194;28;19923;-89
2022/08/04 03:49:03;;;;;;;;;;;;;;;;;;5078581;28;19929;-89
2022/08/04 03:54:27;;;;;;;;;;;;;;;;;;5098449;28;19923;-88
2022/08/04 03:57:11;;;;;;;;;;;;;;;;;;5112179;28;19920;-89
2022/08/04 03:59:45;;;;;;;;;;;;;;;;;;5095883;28;19912;-87
2022/08/04 04:02:29;;;;;;;;;;;;;;;;;;5096378;28;20265;-90
2022/08/04 04:04:54;;;;;;;;;;;;;;;;;;5096022;28;19966;-87
2022/08/04 04:07:26;;;;;;;;;;;;;;;;;;5095588;28;19947;-88
2022/08/04 04:09:54;;;;;;;;;;;;;;;;;;5095882;28;20346;-87
2022/08/04 04:12:38;;;;;;;;;;;;;;;;;;5097620;28;20261;-89
2022/08/04 04:15:26;;;;;;;;;;;;;;;;;;5099337;28;19920;-88
2022/08/04 04:17:55;;;;;;;;;;;;;;;;;;5111239;28;20338;-87
2022/08/04 04:20:29;;;;;;;;;;;;;;;;;;5095748;28;20330;-87
2022/08/04 04:22:54;;;;;;;;;;;;;;;;;;5095632;28;19955;-88
2022/08/04 04:25:41;;;;;;;;;;;;;;;;;;5096120;28;19923;-88
2022/08/04 04:28:09;;;;;;;;;;;;;;;;;;5095643;28;19952;-87
2022/08/04 04:30:40;;;;;;;;;;;;;;;;;;5096161;28;19967;-88
2022/08/04 04:33:20;;;;;;;;;;;;;;;;;;5097513;28;19916;-89
2022/08/04 04:35:49;;;;;;;;;;;;;;;;;;5115803;28;20474;-88
2022/08/04 04:38:34;;;;;;;;;;;;;;;;;;5095409;28;20258;-89
2022/08/04 04:40:59;;;;;;;;;;;;;;;;;;5110862;28;19923;-88
2022/08/04 04:43:44;;;;;;;;;;;;;;;;;;5094904;28;19920;-90
2022/08/04 04:46:14;;;;;;;;;;;;;;;;;;5094907;28;20010;-88
2022/08/04 04:48:43;;;;;;;;;;;;;;;;;;5109813;28;19916;-89
2022/08/04 04:51:27;;;;;;;;;;;;;;;;;;5094747;28;19916;-88
2022/08/04 04:53:59;;;;;;;;;;;;;;;;;;5113369;28;19916;-87
2022/08/04 04:56:35;;;;;;;;;;;;;;;;;;5100351;28;20326;-89
2022/08/04 04:59:01;;;;;;;;;;;;;;;;;;5094875;28;19966;-89
2022/08/04 05:01:50;;;;;;;;;;;;;;;;;;5094678;28;19951;-88
2022/08/04 05:04:42;;;;;;;;;;;;;;;;;;5096393;28;20334;-88
2022/08/04 05:07:26;;;;;;;;;;;;;;;;;;5066129;28;20288;-89
2022/08/04 05:09:56;;;;;;;;;;;;;;;;;;5093440;28;20010;-90
2022/08/04 05:12:25;;;;;;;;;;;;;;;;;;5093255;28;19920;-87
2022/08/04 05:14:50;;;;;;;;;;;;;;;;;;5096437;28;19940;-85
2022/08/04 05:17:17;;;;;;;;;;;;;;;;;;5118218;28;20265;-89
2022/08/04 05:20:01;;;;;;;;;;;;;;;;;;5110694;28;19947;-88
2022/08/04 05:22:28;;;;;;;;;;;;;;;;;;5093175;28;20024;-88
2022/08/04 05:24:58;;;;;;;;;;;;;;;;;;5110577;28;20004;-89
2022/08/04 05:27:44;;;;;;;;;;;;;;;;;;5094629;28;19916;-90
2022/08/04 05:30:09;;;;;;;;;;;;;;;;;;5094431;28;19916;-88
2022/08/04 05:32:37;;;;;;;;;;;;;;;;;;5110696;28;19927;-87
2022/08/04 05:35:14;;;;;;;;;;;;;;;;;;5110406;28;20308;-88
2022/08/04 05:37:40;;;;;;;;;;;;;;;;;;5122117;28;20028;-88
2022/08/04 05:40:06;;;;;;;;;;;;;;;;;;5095199;28;19953;-89
2022/08/04 05:42:31;;;;;;;;;;;;;;;;;;5110577;28;19916;-87
2022/08/04 05:44:59;;;;;;;;;;;;;;;;;;5094352;28;19920;-86
2022/08/04 05:47:25;;;;;;;;;;;;;;;;;;5110167;28;19916;-87
2022/08/04 05:49:50;;;;;;;;;;;;;;;;;;5095076;28;19923;-88
2022/08/04 05:52:18;;;;;;;;;;;;;;;;;;5095423;28;20296;-90
2022/08/04 05:54:43;;;;;;;;;;;;;;;;;;5094955;28;19920;-88
2022/08/04 05:57:09;;;;;;;;;;;;;;;;;;5111792;28;20303;-86
2022/08/04 05:59:36;;;;;;;;;;;;;;;;;;5096144;28;19920;-87
2022/08/04 06:02:02;;;;;;;;;;;;;;;;;;5114198;28;19982;-84
2022/08/04 06:04:48;;;;;;;;;;;;;;;;;;5114103;28;20330;-84
2022/08/04 06:07:13;;;;;;;;;;;;;;;;;;5113854;28;19980;-84
2022/08/04 06:09:38;;;;;;;;;;;;;;;;;;5097992;28;19916;-85
2022/08/04 06:12:08;;;;;;;;;;;;;;;;;;5097989;28;19916;-84
2022/08/04 06:14:40;;;;;;;;;;;;;;;;;;5114087;28;19923;-84
2022/08/04 06:17:06;;;;;;;;;;;;;;;;;;5106641;28;19937;-83
2022/08/04 06:19:32;;;;;;;;;;;;;;;;;;5101770;28;19991;-84
2022/08/04 06:21:58;;;;;;;;;;;;;;;;;;5098204;28;19916;-83
2022/08/04 06:24:25;;;;;;;;;;;;;;;;;;5097550;28;20338;-83
2022/08/04 06:26:50;;;;;;;;;;;;;;;;;;5113263;28;19920;-84
2022/08/04 06:29:23;;;;;;;;;;;;;;;;;;5113086;28;19912;-81
2022/08/04 06:31:57;;;;;;;;;;;;;;;;;;5097425;28;20326;-83
2022/08/04 06:34:22;;;;;;;;;;;;;;;;;;5112090;28;20348;-81
2022/08/04 06:36:48;;;;;;;;;;;;;;;;;;5097745;28;19916;-82
2022/08/04 06:39:14;;;;;;;;;;;;;;;;;;5123506;28;19984;-82
2022/08/04 06:41:39;;;;;;;;;;;;;;;;;;5098292;28;19962;-82
2022/08/04 06:44:08;;;;;;;;;;;;;;;;;;5113614;28;19951;-82
2022/08/04 06:46:35;;;;;;;;;;;;;;;;;;5095850;28;19923;-81
2022/08/04 06:49:00;;;;;;;;;;;;;;;;;;5111877;28;20027;-82
2022/08/04 06:51:26;;;;;;;;;;;;;;;;;;5096987;28;20007;-82
2022/08/04 06:53:51;;;;;;;;;;;;;;;;;;5097107;28;20015;-82
2022/08/04 06:56:16;;;;;;;;;;;;;;;;;;5113552;28;19977;-81
2022/08/04 06:58:42;;;;;;;;;;;;;;;;;;5114663;28;19924;-80
2022/08/04 07:01:07;;;;;;;;;;;;;;;;;;5115961;28;19916;-82
2022/08/04 07:03:33;;;;;;;;;;;;;;;;;;5112752;28;19916;-81
2022/08/04 07:05:58;;;;;;;;;;;;;;;;;;5112695;28;20040;-81
2022/08/04 07:08:24;;;;;;;;;;;;;;;;;;5096788;28;19956;-82
2022/08/04 07:10:49;;;;;;;;;;;;;;;;;;5111632;28;19916;-82
2022/08/04 07:13:14;;;;;;;;;;;;;;;;;;5112378;28;19920;-81
2022/08/04 07:15:44;;;;;;;;;;;;;;;;;;5112797;28;19923;-83
2022/08/04 07:18:09;;;;;;;;;;;;;;;;;;5112515;28;20308;-81
2022/08/04 07:20:34;;;;;;;;;;;;;;;;;;5116293;28;19911;-80
2022/08/04 07:23:00;;;;;;;;;;;;;;;;;;5099689;28;19922;-81
2022/08/04 07:25:26;;;;;;;;;;;;;;;;;;5096352;28;20410;-82
2022/08/04 07:27:51;;;;;;;;;;;;;;;;;;5112708;28;19922;-81
2022/08/04 07:30:16;;;;;;;;;;;;;;;;;;5096801;28;19916;-80
2022/08/04 07:32:42;;;;;;;;;;;;;;;;;;5112371;28;19916;-80
2022/08/04 07:35:08;;;;;;;;;;;;;;;;;;5112544;28;19923;-81
2022/08/04 07:37:33;;;;;;;;;;;;;;;;;;5096213;28;19916;-83
2022/08/04 07:39:59;;;;;;;;;;;;;;;;;;5112510;28;20256;-81
2022/08/04 07:42:24;;;;;;;;;;;;;;;;;;5114783;28;19923;-81
2022/08/04 07:44:50;;;;;;;;;;;;;;;;;;5111689;28;19920;-82
2022/08/04 07:47:15;;;;;;;;;;;;;;;;;;5112496;28;19937;-81
2022/08/04 07:49:41;;;;;;;;;;;;;;;;;;5112176;28;19916;-81
2022/08/04 07:52:06;;;;;;;;;;;;;;;;;;5111703;28;20334;-82
2022/08/04 07:54:32;;;;;;;;;;;;;;;;;;5096504;28;19973;-81
2022/08/04 07:56:57;;;;;;;;;;;;;;;;;;5113410;28;19974;-81
2022/08/04 07:59:24;;;;;;;;;;;;;;;;;;5113980;28;19916;-82
2022/08/04 08:01:49;;;;;;;;;;;;;;;;;;5118798;28;20257;-82
2022/08/04 08:04:14;;;;;;;;;;;;;;;;;;5099992;28;19912;-82
2022/08/04 08:06:40;;;;;;;;;;;;;;;;;;5111364;28;19922;-82
2022/08/04 08:09:06;;;;;;;;;;;;;;;;;;5095896;28;19918;-81
2022/08/04 08:11:32;;;;;;;;;;;;;;;;;;5095825;28;19916;-82
2022/08/04 08:13:57;;;;;;;;;;;;;;;;;;5094365;28;20364;-81
2022/08/04 08:16:22;;;;;;;;;;;;;;;;;;5111468;28;19916;-81
2022/08/04 08:18:49;;;;;;;;;;;;;;;;;;5111488;28;20357;-82
2022/08/04 08:21:14;;;;;;;;;;;;;;;;;;5110670;28;19924;-82
2022/08/04 08:23:39;;;;;;;;;;;;;;;;;;5113115;28;19938;-81
2022/08/04 08:26:05;;;;;;;;;;;;;;;;;;5114377;28;20427;-81
2022/08/04 08:28:30;;;;;;;;;;;;;;;;;;5096124;28;19920;-82
2022/08/04 08:30:55;;;;;;;;;;;;;;;;;;5111059;28;19927;-82
2022/08/04 08:33:21;;;;;;;;;;;;;;;;;;5095379;28;19922;-81
2022/08/04 08:36:16;;;;;;;;;;;;;;;;;;5110598;28;19998;-81
2022/08/04 08:38:41;;;;;;;;;;;;;;;;;;5077380;28;20002;-82
2022/08/04 08:41:06;;;;;;;;;;;;;;;;;;5095289;28;20004;-81
2022/08/04 08:43:46;;;;;;;;;;;;;;;;;;5095073;28;20007;-82
2022/08/04 08:46:20;;;;;;;;;;;;;;;;;;5102958;28;19992;-81
2022/08/04 08:49:08;;;;;;;;;;;;;;;;;;5110998;28;19916;-81
2022/08/04 08:51:34;;;;;;;;;;;;;;;;;;5056762;28;20010;-82
2022/08/04 08:54:02;;;;;;;;;;;;;;;;;;5094971;28;19985;-81
2022/08/04 08:56:33;;;;;;;;;;;;;;;;;;5094929;28;19922;-81
2022/08/04 08:59:17;;;;;;;;;;;;;;;;;;5094609;28;19916;-81
2022/08/04 09:01:58;;;;;;;;;;;;;;;;;;5094645;28;19955;-81
2022/08/04 09:04:29;;;;;;;;;;;;;;;;;;5094503;28;19923;-82
2022/08/04 09:07:07;;;;;;;;;;;;;;;;;;5097875;28;20036;-81
2022/08/04 09:09:50;;;;;;;;;;;;;;;;;;5095107;28;20322;-81
2022/08/04 09:12:34;;;;;;;;;;;;;;;;;;5095027;28;19916;-81
2022/08/04 09:15:04;;;;;;;;;;;;;;;;;;5095370;28;19916;-81
2022/08/04 09:17:39;;;;;;;;;;;;;;;;;;5110541;28;19917;-82
2022/08/04 09:20:18;;;;;;;;;;;;;;;;;;5110202;28;20022;-81
2022/08/04 09:22:50;;;;;;;;;;;;;;;;;;5110750;28;19916;-81
2022/08/04 09:25:25;;;;;;;;;;;;;;;;;;5095072;28;19952;-81
2022/08/04 09:27:52;;;;;;;;;;;;;;;;;;5114598;28;19908;-81
2022/08/04 09:30:18;;;;;;;;;;;;;;;;;;5098507;28;19923;-81
2022/08/04 09:33:22;;;;;;;;;;;;;;;;;;5110570;28;19917;-81
2022/08/04 09:35:53;;;;;;;;;;;;;;;;;;5016377;28;19917;-82
2022/08/04 09:38:25;;;;;;;;;;;;;;;;;;5016631;28;19917;-81
2022/08/04 09:41:09;;;;;;;;;;;;;;;;;;5060861;28;20373;-82
2022/08/04 09:43:34;;;;;;;;;;;;;;;;;;5097204;28;19920;-81
2022/08/04 09:46:01;;;;;;;;;;;;;;;;;;5098612;28;19938;-82
2022/08/04 09:48:34;;;;;;;;;;;;;;;;;;5115442;28;19916;-82
2022/08/04 09:51:05;;;;;;;;;;;;;;;;;;5124036;28;20095;-83
2022/08/04 09:53:50;;;;;;;;;;;;;;;;;;5115216;28;20307;-81
2022/08/04 09:56:16;;;;;;;;;;;;;;;;;;5098719;28;19923;-81
2022/08/04 09:59:00;;;;;;;;;;;;;;;;;;5098021;28;19916;-81
2022/08/04 10:01:25;;;;;;;;;;;;;;;;;;5097835;28;19937;-82
2022/08/04 10:04:00;;;;;;;;;;;;;;;;;;5113923;28;20010;-81
2022/08/04 10:06:33;;;;;;;;;;;;;;;;;;5098212;28;19931;-82
2022/08/04 10:09:00;;;;;;;;;;;;;;;;;;5113809;28;19973;-81
2022/08/04 10:11:34;;;;;;;;;;;;;;;;;;5120781;28;19916;-81
2022/08/04 10:14:01;;;;;;;;;;;;;;;;;;5098247;28;19916;-82
2022/08/04 10:16:29;;;;;;;;;;;;;;;;;;5096232;28;19923;-81
2022/08/04 10:19:13;;;;;;;;;;;;;;;;;;5098008;28;20246;-82
2022/08/04 10:21:44;;;;;;;;;;;;;;;;;;5097835;28;19916;-82
2022/08/04 10:24:30;;;;;;;;;;;;;;;;;;5113917;28;19916;-81
2022/08/04 10:27:08;;;;;;;;;;;;;;;;;;5113663;28;19922;-80
2022/08/04 10:29:37;;;;;;;;;;;;;;;;;;5097754;28;20267;-81
2022/08/04 10:32:08;;;;;;;;;;;;;;;;;;5102180;28;19922;-80
2022/08/04 10:34:45;;;;;;;;;;;;;;;;;;5114070;28;20019;-83
2022/08/04 10:37:18;;;;;;;;;;;;;;;;;;5097560;28;19924;-81
2022/08/04 10:43:22;;;;;;;;;;;;;;;;;;5014877;28;19932;-81
2022/08/04 10:46:06;;;;;;;;;;;;;;;;;;5095503;28;19923;-81
2022/08/04 10:48:50;;;;;;;;;;;;;;;;;;5097339;28;20349;-80
2022/08/04 10:51:35;;;;;;;;;;;;;;;;;;5097288;28;19977;-81
2022/08/04 10:54:07;;;;;;;;;;;;;;;;;;5104717;28;19920;-81
2022/08/04 10:56:40;;;;;;;;;;;;;;;;;;5097510;28;19916;-82
2022/08/04 10:59:26;;;;;;;;;;;;;;;;;;5112525;28;19938;-81
2022/08/04 11:01:52;;;;;;;;;;;;;;;;;;5096281;28;19916;-81
2022/08/04 11:04:36;;;;;;;;;;;;;;;;;;5097182;28;20348;-81
2022/08/04 11:07:02;;;;;;;;;;;;;;;;;;5096695;28;20299;-81
2022/08/04 11:09:28;;;;;;;;;;;;;;;;;;5095832;28;19916;-80
2022/08/04 11:11:55;;;;;;;;;;;;;;;;;;5112166;28;20258;-81
2022/08/04 11:14:32;;;;;;;;;;;;;;;;;;5118505;28;19916;-81
2022/08/04 11:17:02;;;;;;;;;;;;;;;;;;5097364;28;19923;-81
2022/08/04 11:19:43;;;;;;;;;;;;;;;;;;5096513;28;19989;-83
2022/08/04 11:22:09;;;;;;;;;;;;;;;;;;5096762;28;20006;-82
2022/08/04 11:24:53;;;;;;;;;;;;;;;;;;5112296;28;19966;-81
2022/08/04 11:27:37;;;;;;;;;;;;;;;;;;5096315;28;19916;-81
2022/08/04 11:30:03;;;;;;;;;;;;;;;;;;5112109;28;19965;-81
2022/08/04 11:32:31;;;;;;;;;;;;;;;;;;5096438;28;19923;-81
2022/08/04 11:34:57;;;;;;;;;;;;;;;;;;5117789;28;19916;-82
2022/08/04 11:37:25;;;;;;;;;;;;;;;;;;5095566;28;19916;-82
2022/08/04 11:40:03;;;;;;;;;;;;;;;;;;5096405;28;19916;-83
2022/08/04 11:42:30;;;;;;;;;;;;;;;;;;5112166;28;20334;-81
2022/08/04 11:45:14;;;;;;;;;;;;;;;;;;5111606;28;19920;-81
2022/08/04 11:47:50;;;;;;;;;;;;;;;;;;5096279;28;19947;-82
2022/08/04 11:50:34;;;;;;;;;;;;;;;;;;5111579;28;19919;-81
2022/08/04 11:52:59;;;;;;;;;;;;;;;;;;5096084;28;19916;-83
2022/08/04 11:55:26;;;;;;;;;;;;;;;;;;5097101;28;20231;-83
2022/08/04 11:57:52;;;;;;;;;;;;;;;;;;5113067;28;20275;-81
2022/08/04 12:00:18;;;;;;;;;;;;;;;;;;5112242;28;19916;-89
2022/08/04 12:02:49;;;;;;;;;;;;;;;;;;5113048;28;20000;-85
2022/08/04 12:05:15;;;;;;;;;;;;;;;;;;5094651;28;20254;-88
2022/08/04 12:07:44;;;;;;;;;;;;;;;;;;5111581;28;19916;-88
2022/08/04 12:10:28;;;;;;;;;;;;;;;;;;5111659;28;20265;-88
2022/08/04 12:13:13;;;;;;;;;;;;;;;;;;5095842;28;19916;-87
2022/08/04 12:15:56;;;;;;;;;;;;;;;;;;5103850;28;19977;-88
2022/08/04 12:18:23;;;;;;;;;;;;;;;;;;5111178;28;19958;-87
2022/08/04 12:20:49;;;;;;;;;;;;;;;;;;5094393;28;19920;-85
2022/08/04 12:23:22;;;;;;;;;;;;;;;;;;5111291;28;19916;-87
2022/08/04 12:26:01;;;;;;;;;;;;;;;;;;5111053;28;19916;-85
2022/08/04 12:28:33;;;;;;;;;;;;;;;;;;5095845;28;19916;-87
2022/08/04 12:31:04;;;;;;;;;;;;;;;;;;5095403;28;19938;-88
2022/08/04 12:33:32;;;;;;;;;;;;;;;;;;5095598;28;19923;-88
2022/08/04 12:35:58;;;;;;;;;;;;;;;;;;5102694;28;19924;-88
2022/08/04 12:38:25;;;;;;;;;;;;;;;;;;5110953;28;20009;-87
2022/08/04 12:40:50;;;;;;;;;;;;;;;;;;5095079;28;19916;-87
2022/08/04 12:43:22;;;;;;;;;;;;;;;;;;5110809;28;20007;-86
2022/08/04 12:45:51;;;;;;;;;;;;;;;;;;5111097;28;19977;-88
2022/08/04 12:48:17;;;;;;;;;;;;;;;;;;5110963;28;20395;-85
2022/08/04 12:50:46;;;;;;;;;;;;;;;;;;5095089;28;20003;-87
2022/08/04 12:53:12;;;;;;;;;;;;;;;;;;5095075;28;20007;-89
2022/08/04 12:55:37;;;;;;;;;;;;;;;;;;5099131;28;19939;-89
2022/08/04 12:58:03;;;;;;;;;;;;;;;;;;5114414;28;19920;-89
2022/08/04 13:00:37;;;;;;;;;;;;;;;;;;5110499;28;19922;-88
2022/08/04 13:03:07;;;;;;;;;;;;;;;;;;5094594;28;20372;-88
2022/08/04 13:05:32;;;;;;;;;;;;;;;;;;5110303;28;20015;-86
2022/08/04 13:07:58;;;;;;;;;;;;;;;;;;5094396;28;19959;-89
2022/08/04 13:10:23;;;;;;;;;;;;;;;;;;5094385;28;19959;-88
2022/08/04 13:12:53;;;;;;;;;;;;;;;;;;5110557;28;19916;-87
2022/08/04 13:15:22;;;;;;;;;;;;;;;;;;5095018;28;19916;-86
2022/08/04 13:17:58;;;;;;;;;;;;;;;;;;5111670;28;19916;-85
2022/08/04 13:20:41;;;;;;;;;;;;;;;;;;5110386;28;20353;-87
2022/08/04 13:23:08;;;;;;;;;;;;;;;;;;5110120;28;19916;-86
2022/08/04 13:25:35;;;;;;;;;;;;;;;;;;5094534;28;19916;-87
2022/08/04 13:28:01;;;;;;;;;;;;;;;;;;5095788;28;19951;-88
2022/08/04 13:30:26;;;;;;;;;;;;;;;;;;5094602;28;19958;-87
2022/08/04 13:32:56;;;;;;;;;;;;;;;;;;5110059;28;19977;-86
2022/08/04 13:35:22;;;;;;;;;;;;;;;;;;5110282;28;19916;-86
2022/08/04 13:37:47;;;;;;;;;;;;;;;;;;5110309;28;19916;-86
2022/08/04 13:40:20;;;;;;;;;;;;;;;;;;5114467;28;20280;-87
2022/08/04 13:43:15;;;;;;;;;;;;;;;;;;5109737;28;19917;-87
2022/08/04 13:45:41;;;;;;;;;;;;;;;;;;5091333;28;20626;-85
2022/08/04 13:48:06;;;;;;;;;;;;;;;;;;5094247;28;19920;-86
2022/08/04 13:50:32;;;;;;;;;;;;;;;;;;5110269;28;19923;-86
2022/08/04 13:53:01;;;;;;;;;;;;;;;;;;5093705;28;19973;-84
2022/08/04 13:55:30;;;;;;;;;;;;;;;;;;5109351;28;19920;-84
2022/08/04 13:57:57;;;;;;;;;;;;;;;;;;5110077;28;19991;-85
2022/08/04 14:00:23;;;;;;;;;;;;;;;;;;5114692;28;19920;-84
2022/08/04 14:02:49;;;;;;;;;;;;;;;;;;5110609;28;19924;-84
2022/08/04 14:05:16;;;;;;;;;;;;;;;;;;5110551;28;20314;-84
2022/08/04 14:07:45;;;;;;;;;;;;;;;;;;5097090;28;20228;-84
2022/08/04 14:10:10;;;;;;;;;;;;;;;;;;5113843;28;19901;-84
2022/08/04 14:12:41;;;;;;;;;;;;;;;;;;5112981;28;19938;-84
2022/08/04 14:15:07;;;;;;;;;;;;;;;;;;5107224;28;19920;-84
2022/08/04 14:17:32;;;;;;;;;;;;;;;;;;5110107;28;19920;-85
2022/08/04 14:19:59;;;;;;;;;;;;;;;;;;5100100;28;19920;-85
2022/08/04 14:22:24;;;;;;;;;;;;;;;;;;5113972;28;19947;-90
2022/08/04 14:24:54;;;;;;;;;;;;;;;;;;5098002;28;19973;-87
2022/08/04 14:27:19;;;;;;;;;;;;;;;;;;5098009;28;19916;-87
2022/08/04 14:29:45;;;;;;;;;;;;;;;;;;5113971;28;19923;-84
2022/08/04 14:32:10;;;;;;;;;;;;;;;;;;5097945;28;19966;-85
2022/08/04 14:34:37;;;;;;;;;;;;;;;;;;5113741;28;19999;-87
2022/08/04 14:37:05;;;;;;;;;;;;;;;;;;5098332;28;19912;-85
2022/08/04 14:39:37;;;;;;;;;;;;;;;;;;5114032;28;20018;-88
2022/08/04 14:42:03;;;;;;;;;;;;;;;;;;5127101;28;19924;-87
2022/08/04 14:44:28;;;;;;;;;;;;;;;;;;5100015;28;19928;-88
2022/08/04 14:46:54;;;;;;;;;;;;;;;;;;5097558;28;19920;-85
2022/08/04 14:49:20;;;;;;;;;;;;;;;;;;5097491;28;20000;-86
2022/08/04 14:51:57;;;;;;;;;;;;;;;;;;5097324;28;19923;-89
2022/08/04 14:54:32;;;;;;;;;;;;;;;;;;5096054;28;20321;-87
2022/08/04 14:56:59;;;;;;;;;;;;;;;;;;5113029;28;19962;-87
2022/08/04 14:59:25;;;;;;;;;;;;;;;;;;5113035;28;19995;-86
2022/08/04 15:01:50;;;;;;;;;;;;;;;;;;5105134;28;19975;-87
2022/08/04 15:04:30;;;;;;;;;;;;;;;;;;5101622;28;19965;-85
2022/08/04 15:06:56;;;;;;;;;;;;;;;;;;5112938;28;19916;-86
2022/08/04 15:09:21;;;;;;;;;;;;;;;;;;5112811;28;20015;-88
2022/08/04 15:11:46;;;;;;;;;;;;;;;;;;5112935;28;19959;-85
2022/08/04 15:14:12;;;;;;;;;;;;;;;;;;5113041;28;19924;-86
2022/08/04 15:16:37;;;;;;;;;;;;;;;;;;5097427;28;19916;-88
2022/08/04 15:19:02;;;;;;;;;;;;;;;;;;5096911;28;19916;-85
2022/08/04 15:21:28;;;;;;;;;;;;;;;;;;5095730;28;19999;-85
2022/08/04 15:23:54;;;;;;;;;;;;;;;;;;5102149;28;19963;-87
2022/08/04 15:26:23;;;;;;;;;;;;;;;;;;5114393;28;19924;-89
2022/08/04 15:28:50;;;;;;;;;;;;;;;;;;5096980;28;19915;-88
2022/08/04 15:31:16;;;;;;;;;;;;;;;;;;5094700;28;19916;-87
2022/08/04 15:33:41;;;;;;;;;;;;;;;;;;5113554;28;20329;-85
2022/08/04 15:36:13;;;;;;;;;;;;;;;;;;5095377;28;19916;-86
2022/08/04 15:38:41;;;;;;;;;;;;;;;;;;5096692;28;20326;-85
2022/08/04 15:41:13;;;;;;;;;;;;;;;;;;5112490;28;19920;-86
2022/08/04 15:43:49;;;;;;;;;;;;;;;;;;5112125;28;20007;-87
2022/08/04 15:46:15;;;;;;;;;;;;;;;;;;5112464;28;19920;-88
2022/08/04 15:48:40;;;;;;;;;;;;;;;;;;5112238;28;20337;-86
2022/08/04 15:51:09;;;;;;;;;;;;;;;;;;5096267;28;19916;-87
2022/08/04 15:53:38;;;;;;;;;;;;;;;;;;5094922;28;19966;-87
2022/08/04 15:56:06;;;;;;;;;;;;;;;;;;5094804;28;19974;-86
2022/08/04 15:58:46;;;;;;;;;;;;;;;;;;5112139;28;20330;-85
2022/08/04 16:01:12;;;;;;;;;;;;;;;;;;5096679;28;19916;-87
2022/08/04 16:03:41;;;;;;;;;;;;;;;;;;5096508;28;19958;-89
2022/08/04 16:06:06;;;;;;;;;;;;;;;;;;5100134;28;20003;-88
2022/08/04 16:08:47;;;;;;;;;;;;;;;;;;5096318;28;20007;-86
2022/08/04 16:13:58;;;;;;;;;;;;;;;;;;5096560;28;19916;-90
2022/08/04 16:16:27;;;;;;;;;;;;;;;;;;5096046;28;20376;-87
2022/08/04 16:18:52;;;;;;;;;;;;;;;;;;5094468;28;19967;-91
2022/08/04 16:21:22;;;;;;;;;;;;;;;;;;5111242;28;19923;-89
2022/08/04 16:23:48;;;;;;;;;;;;;;;;;;5095898;28;19923;-88
2022/08/04 16:26:13;;;;;;;;;;;;;;;;;;5097254;28;19912;-89
2022/08/04 16:28:39;;;;;;;;;;;;;;;;;;5095651;28;19920;-89
2022/08/04 16:31:05;;;;;;;;;;;;;;;;;;5095826;28;20306;-90
2022/08/04 16:33:30;;;;;;;;;;;;;;;;;;5111063;28;19950;-89
2022/08/04 16:35:56;;;;;;;;;;;;;;;;;;5094344;28;20326;-89
2022/08/04 16:38:21;;;;;;;;;;;;;;;;;;5095849;28;20350;-89
2022/08/04 16:40:53;;;;;;;;;;;;;;;;;;5096109;28;19924;-91
2022/08/04 16:43:21;;;;;;;;;;;;;;;;;;5095573;28;20362;-88
2022/08/04 16:45:47;;;;;;;;;;;;;;;;;;5115115;28;19974;-89
2022/08/04 16:48:13;;;;;;;;;;;;;;;;;;5101787;28;20211;-90
2022/08/04 16:50:55;;;;;;;;;;;;;;;;;;5095134;28;19995;-87
2022/08/04 16:53:20;;;;;;;;;;;;;;;;;;5110944;28;20317;-88
2022/08/04 16:55:46;;;;;;;;;;;;;;;;;;5093891;28;19923;-89
2022/08/04 16:58:12;;;;;;;;;;;;;;;;;;5094133;28;19923;-89
2022/08/04 17:00:37;;;;;;;;;;;;;;;;;;5093804;28;19924;-89
2022/08/04 17:03:03;;;;;;;;;;;;;;;;;;5111231;28;19974;-91
2022/08/04 17:05:28;;;;;;;;;;;;;;;;;;5111002;28;19923;-90
2022/08/04 17:07:54;;;;;;;;;;;;;;;;;;5103277;28;19931;-88
2022/08/04 17:10:36;;;;;;;;;;;;;;;;;;5111766;28;19916;-89
2022/08/04 17:13:18;;;;;;;;;;;;;;;;;;5110843;28;20325;-89
2022/08/04 17:15:45;;;;;;;;;;;;;;;;;;5094092;28;20011;-88
2022/08/04 17:18:21;;;;;;;;;;;;;;;;;;5110674;28;20365;-89